createdAt,value
2019-02-22T00:01:14.599Z,10.10
2019-02-22T00:03:44.976Z,10.10
2019-02-22T00:06:15.328Z,10.10
2019-02-22T00:08:45.851Z,10.10
2019-02-22T00:11:16.428Z,10.10
2019-02-22T00:13:46.761Z,10.10
2019-02-22T00:16:17.180Z,10.10
2019-02-22T00:18:47.561Z,10.10
2019-02-22T00:21:17.994Z,10.10
2019-02-22T00:23:48.450Z,10.10
2019-02-22T00:26:20.216Z,10.10
2019-02-22T00:28:50.684Z,10.10
2019-02-22T00:31:21.116Z,10.10
2019-02-22T00:33:51.835Z,10.10
2019-02-22T00:36:22.513Z,10.10
2019-02-22T00:38:53.072Z,10.10
2019-02-22T00:41:23.451Z,10.10
2019-02-22T00:43:53.947Z,10.20
2019-02-22T00:46:24.404Z,10.10
2019-02-22T00:48:54.867Z,10.10
2019-02-22T00:51:25.319Z,10.10
2019-02-22T00:53:55.959Z,10.10
2019-02-22T00:56:26.286Z,10.10
2019-02-22T00:58:56.844Z,10.10
2019-02-22T01:01:27.282Z,10.10
2019-02-22T01:03:57.963Z,10.10
2019-02-22T01:06:28.583Z,10.00
2019-02-22T01:08:58.917Z,10.10
2019-02-22T01:11:29.516Z,10.00
2019-02-22T01:14:00.728Z,10.00
2019-02-22T01:16:31.411Z,10.10
2019-02-22T01:19:01.883Z,10.00
2019-02-22T01:21:33.335Z,10.00
2019-02-22T01:24:03.883Z,10.00
2019-02-22T01:26:35.675Z,10.00
2019-02-22T01:29:07.043Z,10.00
2019-02-22T01:31:37.508Z,10.00
2019-02-22T01:34:09.279Z,10.00
2019-02-22T01:36:39.659Z,10.00
2019-02-22T01:39:09.983Z,10.00
2019-02-22T01:41:40.576Z,9.90
2019-02-22T01:44:21.479Z,9.90
2019-02-22T01:46:51.899Z,9.90
2019-02-22T01:49:22.402Z,10.00
2019-02-22T01:51:52.763Z,9.90
2019-02-22T01:54:23.100Z,9.90
2019-02-22T01:56:53.479Z,10.00
2019-02-22T01:59:37.778Z,9.90
2019-02-22T02:02:42.445Z,9.90
2019-02-22T02:05:15.980Z,9.90
2019-02-22T02:07:46.426Z,9.90
2019-02-22T02:10:16.818Z,9.90
2019-02-22T02:12:47.335Z,9.80
2019-02-22T02:15:18.712Z,9.80
2019-02-22T02:17:49.063Z,9.80
2019-02-22T02:20:19.548Z,9.80
2019-02-22T02:22:51.017Z,9.80
2019-02-22T02:25:30.711Z,9.80
2019-02-22T02:28:23.870Z,9.70
2019-02-22T02:30:56.102Z,9.70
2019-02-22T02:33:26.452Z,9.70
2019-02-22T02:35:56.857Z,9.70
2019-02-22T02:38:27.207Z,9.60
2019-02-22T02:41:08.110Z,9.60
2019-02-22T02:43:30.772Z,9.60
2019-02-22T02:46:01.223Z,9.60
2019-02-22T02:48:32.508Z,9.50
2019-02-22T02:51:03.140Z,9.40
2019-02-22T02:53:33.565Z,9.40
2019-02-22T02:56:04.079Z,9.30
2019-02-22T02:58:35.709Z,9.30
2019-02-22T03:01:06.096Z,9.30
2019-02-22T03:03:37.010Z,9.20
2019-02-22T03:06:21.598Z,9.20
2019-02-22T03:08:51.985Z,9.20
2019-02-22T03:11:24.921Z,9.10
2019-02-22T03:13:55.329Z,9.20
2019-02-22T03:16:25.777Z,9.20
2019-02-22T03:18:56.115Z,9.10
2019-02-22T03:21:26.481Z,9.20
2019-02-22T03:23:56.904Z,9.10
2019-02-22T03:26:27.354Z,9.10
2019-02-22T03:29:00.358Z,9.10
2019-02-22T03:31:32.124Z,9.00
2019-02-22T03:34:13.533Z,9.00
2019-02-22T03:36:43.976Z,9.00
2019-02-22T03:39:14.431Z,9.00
2019-02-22T03:41:45.504Z,9.00
2019-02-22T03:44:16.002Z,9.10
2019-02-22T03:46:46.998Z,9.10
2019-02-22T03:49:17.924Z,9.20
2019-02-22T03:51:49.157Z,9.10
2019-02-22T03:54:22.036Z,9.20
2019-02-22T03:56:59.585Z,9.20
2019-02-22T03:59:43.228Z,9.20
2019-02-22T04:02:20.190Z,9.30
2019-02-22T04:04:55.764Z,9.30
2019-02-22T04:07:28.136Z,9.30
2019-02-22T04:10:05.019Z,9.30
2019-02-22T04:12:39.347Z,9.30
2019-02-22T04:15:12.222Z,9.30
2019-02-22T04:17:43.799Z,9.30
2019-02-22T04:20:17.567Z,9.30
2019-02-22T04:22:49.451Z,9.30
2019-02-22T04:25:27.295Z,9.30
2019-02-22T04:27:59.841Z,9.30
2019-02-22T04:30:32.970Z,9.30
2019-02-22T04:33:05.582Z,9.30
2019-02-22T04:35:37.524Z,9.30
2019-02-22T04:38:08.005Z,9.30
2019-02-22T04:40:38.349Z,9.30
2019-02-22T04:43:10.749Z,9.30
2019-02-22T04:46:23.608Z,9.20
2019-02-22T04:52:23.805Z,9.30
2019-02-22T04:55:01.498Z,9.30
2019-02-22T04:57:34.048Z,9.30
2019-02-22T05:00:06.397Z,9.30
2019-02-22T05:02:37.704Z,9.30
2019-02-22T05:05:10.431Z,9.30
2019-02-22T05:07:42.916Z,9.30
2019-02-22T05:10:13.349Z,9.30
2019-02-22T05:12:43.827Z,9.30
2019-02-22T05:15:14.788Z,9.30
2019-02-22T05:17:45.428Z,9.30
2019-02-22T05:20:20.041Z,9.30
2019-02-22T05:23:03.017Z,9.30
2019-02-22T05:25:23.153Z,9.40
2019-02-22T05:27:53.680Z,9.40
2019-02-22T05:30:24.739Z,9.30
2019-02-22T05:32:56.693Z,9.30
2019-02-22T05:35:27.082Z,9.30
2019-02-22T05:37:57.633Z,9.30
2019-02-22T05:40:28.091Z,9.30
2019-02-22T05:42:59.036Z,9.30
2019-02-22T05:45:29.484Z,9.30
2019-02-22T05:48:00.947Z,9.30
2019-02-22T05:50:31.840Z,9.40
2019-02-22T05:53:02.264Z,9.40
2019-02-22T05:55:32.797Z,9.50
2019-02-22T05:58:03.224Z,9.40
2019-02-22T06:00:33.559Z,9.30
2019-02-22T06:03:04.140Z,9.30
2019-02-22T06:05:34.596Z,9.40
2019-02-22T06:08:05.147Z,9.40
2019-02-22T06:10:35.734Z,9.40
2019-02-22T06:13:06.179Z,9.40
2019-02-22T06:15:36.800Z,9.40
2019-02-22T06:18:07.209Z,9.40
2019-02-22T06:20:39.945Z,9.40
2019-02-22T06:23:10.364Z,9.40
2019-02-22T06:25:40.930Z,9.40
2019-02-22T06:28:11.869Z,9.40
2019-02-22T06:30:42.460Z,9.40
2019-02-22T06:33:13.909Z,9.40
2019-02-22T06:35:44.362Z,9.40
2019-02-22T06:38:14.671Z,9.30
2019-02-22T06:40:47.986Z,9.30
2019-02-22T06:43:17.108Z,9.30
2019-02-22T06:45:47.539Z,9.30
2019-02-22T06:48:17.988Z,9.40
2019-02-22T06:50:48.609Z,9.30
2019-02-22T06:53:18.996Z,9.30
2019-02-22T06:55:52.614Z,9.30
2019-02-22T06:58:23.075Z,9.30
2019-02-22T07:00:56.512Z,9.30
2019-02-22T07:03:26.916Z,9.30
2019-02-22T07:05:57.348Z,9.30
2019-02-22T07:08:28.491Z,9.30
2019-02-22T07:11:08.752Z,9.30
2019-02-22T07:13:40.253Z,9.40
2019-02-22T07:16:12.443Z,9.30
2019-02-22T07:18:43.787Z,9.30
2019-02-22T07:21:14.334Z,9.30
2019-02-22T07:23:44.675Z,9.30
2019-02-22T07:26:15.893Z,9.40
2019-02-22T07:28:46.282Z,9.40
2019-02-22T07:31:16.742Z,9.40
2019-02-22T07:33:47.801Z,9.40
2019-02-22T07:36:18.795Z,9.40
2019-02-22T07:38:49.458Z,9.50
2019-02-22T07:41:19.844Z,9.50
2019-02-22T07:43:50.277Z,9.50
2019-02-22T07:46:20.769Z,9.50
2019-02-22T07:48:51.235Z,9.50
2019-02-22T07:51:22.043Z,9.50
2019-02-22T07:53:52.368Z,9.50
2019-02-22T07:56:23.016Z,9.60
2019-02-22T07:58:54.064Z,9.60
2019-02-22T08:01:26.929Z,9.60
2019-02-22T08:03:56.941Z,9.60
2019-02-22T08:06:27.547Z,9.70
2019-02-22T08:08:58.165Z,9.70
2019-02-22T08:11:28.608Z,9.70
2019-02-22T08:13:59.142Z,9.70
2019-02-22T08:16:30.052Z,9.70
2019-02-22T08:19:01.797Z,9.80
2019-02-22T08:21:32.510Z,9.90
2019-02-22T08:24:02.948Z,9.90
2019-02-22T08:26:33.396Z,9.90
2019-02-22T08:29:03.901Z,10.00
2019-02-22T08:31:35.027Z,10.00
2019-02-22T08:34:05.448Z,10.10
2019-02-22T08:36:35.909Z,10.10
2019-02-22T08:39:06.501Z,10.10
2019-02-22T08:41:37.002Z,10.20
2019-02-22T08:44:07.508Z,10.20
2019-02-22T08:46:37.915Z,10.20
2019-02-22T08:49:08.529Z,10.20
2019-02-22T08:51:39.345Z,10.20
2019-02-22T08:54:09.721Z,10.20
2019-02-22T08:56:41.114Z,10.30
2019-02-22T08:59:11.404Z,10.30
2019-02-22T09:01:41.834Z,10.30
2019-02-22T09:04:12.247Z,10.40
2019-02-22T09:06:42.680Z,10.40
2019-02-22T09:09:13.096Z,10.40
2019-02-22T09:11:44.221Z,10.40
2019-02-22T09:14:14.621Z,10.50
2019-02-22T09:16:44.972Z,10.60
2019-02-22T09:19:15.425Z,10.50
2019-02-22T09:21:45.866Z,10.50
2019-02-22T09:24:16.309Z,10.50
2019-02-22T09:26:46.660Z,10.50
2019-02-22T09:29:16.991Z,10.60
2019-02-22T09:31:47.445Z,10.60
2019-02-22T09:34:19.020Z,10.60
2019-02-22T09:36:49.493Z,10.60
2019-02-22T09:39:19.980Z,10.70
2019-02-22T09:41:50.353Z,10.70
2019-02-22T09:44:21.811Z,10.80
2019-02-22T09:46:52.273Z,10.80
2019-02-22T09:49:22.852Z,10.80
2019-02-22T09:51:54.060Z,10.90
2019-02-22T09:54:25.229Z,11.00
2019-02-22T09:56:56.024Z,11.00
2019-02-22T09:59:26.658Z,11.00
2019-02-22T10:01:57.088Z,11.10
2019-02-22T10:04:27.679Z,11.00
2019-02-22T10:06:58.089Z,11.10
2019-02-22T10:09:28.604Z,11.10
2019-02-22T10:11:58.963Z,11.20
2019-02-22T10:14:29.424Z,11.30
2019-02-22T10:17:00.852Z,11.40
2019-02-22T10:19:31.231Z,11.40
2019-02-22T10:22:01.589Z,11.50
2019-02-22T10:24:32.010Z,11.60
2019-02-22T10:27:02.468Z,11.60
2019-02-22T10:29:33.223Z,11.60
2019-02-22T10:32:03.678Z,11.70
2019-02-22T10:34:34.025Z,11.80
2019-02-22T10:37:04.581Z,11.80
2019-02-22T10:39:35.068Z,11.90
2019-02-22T10:42:05.563Z,12.00
2019-02-22T10:44:36.001Z,12.20
2019-02-22T10:47:06.356Z,12.40
2019-02-22T10:49:36.775Z,12.60
2019-02-22T10:52:07.467Z,12.60
2019-02-22T10:54:38.201Z,12.60
2019-02-22T10:57:08.660Z,12.70
2019-02-22T10:59:40.904Z,12.60
2019-02-22T11:02:11.384Z,12.70
2019-02-22T11:04:41.702Z,12.50
2019-02-22T11:07:12.156Z,12.40
2019-02-22T11:09:42.621Z,12.30
2019-02-22T11:12:13.275Z,12.30
2019-02-22T11:14:43.690Z,12.20
2019-02-22T11:17:14.045Z,12.30
2019-02-22T11:19:44.510Z,12.30
2019-02-22T11:22:14.972Z,12.30
2019-02-22T11:24:47.281Z,12.30
2019-02-22T11:27:17.664Z,12.30
2019-02-22T11:29:49.357Z,12.30
2019-02-22T11:32:19.993Z,12.30
2019-02-22T11:34:50.421Z,12.30
2019-02-22T11:37:20.887Z,12.40
2019-02-22T11:39:52.243Z,12.40
2019-02-22T11:42:22.587Z,12.30
2019-02-22T11:44:52.947Z,12.30
2019-02-22T11:47:23.369Z,12.40
2019-02-22T11:49:53.872Z,12.30
2019-02-22T11:52:26.229Z,12.30
2019-02-22T11:54:58.302Z,12.40
2019-02-22T11:57:28.631Z,12.30
2019-02-22T11:59:58.974Z,12.40
2019-02-22T12:02:29.604Z,12.40
2019-02-22T12:05:00.235Z,12.60
2019-02-22T12:07:31.566Z,12.60
2019-02-22T12:10:01.882Z,12.60
2019-02-22T12:12:33.896Z,12.70
2019-02-22T12:15:04.476Z,12.50
2019-02-22T12:17:35.375Z,12.50
2019-02-22T12:20:07.080Z,12.50
2019-02-22T12:22:37.450Z,12.40
2019-02-22T12:25:08.259Z,12.40
2019-02-22T12:27:38.912Z,12.40
2019-02-22T12:30:11.471Z,12.40
2019-02-22T12:32:42.834Z,12.40
2019-02-22T12:35:13.348Z,12.40
2019-02-22T12:37:43.766Z,12.40
2019-02-22T12:40:14.458Z,12.30
2019-02-22T12:42:45.109Z,12.20
2019-02-22T12:45:15.559Z,12.20
2019-02-22T12:47:46.141Z,12.20
2019-02-22T12:50:16.483Z,12.30
2019-02-22T12:52:46.844Z,12.30
2019-02-22T12:55:17.540Z,12.40
2019-02-22T12:57:48.053Z,12.40
2019-02-22T13:00:21.229Z,12.30
2019-02-22T13:03:01.469Z,12.40
2019-02-22T13:05:24.305Z,12.40
2019-02-22T13:07:54.721Z,12.40
2019-02-22T13:10:25.161Z,12.40
2019-02-22T13:12:55.691Z,12.30
2019-02-22T13:15:26.275Z,12.40
2019-02-22T13:17:56.597Z,12.40
2019-02-22T13:20:28.903Z,12.30
2019-02-22T13:22:59.332Z,12.30
2019-02-22T13:25:29.817Z,12.30
2019-02-22T13:28:00.317Z,12.20
2019-02-22T13:30:30.779Z,12.30
2019-02-22T13:33:01.111Z,12.20
2019-02-22T13:35:31.468Z,12.20
2019-02-22T13:38:02.048Z,12.20
2019-02-22T13:40:32.476Z,12.00
2019-02-22T13:43:05.252Z,11.90
2019-02-22T13:45:35.113Z,12.00
2019-02-22T13:48:06.728Z,12.10
2019-02-22T13:50:37.202Z,12.10
2019-02-22T13:53:07.739Z,12.00
2019-02-22T13:55:39.642Z,12.00
2019-02-22T13:58:10.097Z,12.00
2019-02-22T14:00:40.655Z,11.90
2019-02-22T14:03:10.941Z,11.90
2019-02-22T14:05:41.310Z,12.00
2019-02-22T14:08:11.892Z,12.00
2019-02-22T14:10:42.323Z,12.00
2019-02-22T14:13:12.642Z,11.90
2019-02-22T14:15:43.064Z,11.80
2019-02-22T14:18:13.443Z,11.80
2019-02-22T14:20:43.893Z,11.80
2019-02-22T14:23:14.727Z,11.90
2019-02-22T14:25:45.911Z,11.90
2019-02-22T14:28:16.249Z,11.80
2019-02-22T14:30:46.753Z,11.80
2019-02-22T14:33:17.069Z,11.70
2019-02-22T14:35:47.404Z,11.70
2019-02-22T14:38:18.091Z,11.60
2019-02-22T14:40:48.609Z,11.70
2019-02-22T14:43:18.993Z,11.70
2019-02-22T14:45:53.088Z,11.80
2019-02-22T14:48:21.849Z,11.80
2019-02-22T14:50:52.449Z,11.80
2019-02-22T14:53:22.782Z,11.80
2019-02-22T14:55:53.652Z,11.80
2019-02-22T14:58:23.995Z,11.80
2019-02-22T15:00:55.171Z,11.80
2019-02-22T15:03:25.787Z,11.80
2019-02-22T15:05:56.124Z,11.80
2019-02-22T15:08:26.622Z,11.80
2019-02-22T15:10:56.979Z,11.70
2019-02-22T15:13:27.272Z,11.80
2019-02-22T15:16:15.433Z,11.90
2019-02-22T15:18:45.828Z,11.80
2019-02-22T15:21:17.054Z,11.70
2019-02-22T15:23:47.449Z,11.80
2019-02-22T15:26:18.820Z,11.80
2019-02-22T15:28:49.263Z,11.90
2019-02-22T15:31:19.699Z,11.90
2019-02-22T15:33:50.201Z,12.00
2019-02-22T15:36:20.932Z,11.90
2019-02-22T15:38:51.593Z,11.80
2019-02-22T15:41:21.995Z,11.80
2019-02-22T15:43:52.577Z,11.80
2019-02-22T15:46:23.853Z,11.70
2019-02-22T15:48:57.119Z,11.80
2019-02-22T15:51:27.493Z,11.80
2019-02-22T15:53:57.896Z,11.90
2019-02-22T15:56:28.723Z,11.70
2019-02-22T15:58:59.210Z,11.70
2019-02-22T16:01:29.666Z,11.70
2019-02-22T16:04:06.690Z,11.80
2019-02-22T16:06:37.670Z,11.80
2019-02-22T16:09:08.560Z,11.80
2019-02-22T16:11:40.604Z,11.90
2019-02-22T16:14:11.088Z,11.90
2019-02-22T16:16:42.331Z,11.80
2019-02-22T16:19:13.368Z,11.80
2019-02-22T16:21:44.583Z,11.80
2019-02-22T16:24:15.012Z,11.70
2019-02-22T16:26:45.558Z,11.80
2019-02-22T16:29:16.872Z,11.80
2019-02-22T16:31:49.198Z,11.80
2019-02-22T16:34:20.789Z,11.80
2019-02-22T16:36:52.071Z,11.80
2019-02-22T16:39:26.195Z,11.80
2019-02-22T16:41:56.936Z,11.80
2019-02-22T16:44:27.393Z,11.70
2019-02-22T16:46:58.609Z,11.70
2019-02-22T16:49:30.626Z,11.70
2019-02-22T16:52:05.179Z,11.80
2019-02-22T16:54:35.675Z,11.80
2019-02-22T16:57:06.346Z,11.70
2019-02-22T16:59:36.887Z,11.70
2019-02-22T17:02:07.489Z,11.70
2019-02-22T17:04:38.688Z,11.70
2019-02-22T17:07:10.175Z,11.70
2019-02-22T17:09:40.667Z,11.70
2019-02-22T17:12:11.171Z,11.60
2019-02-22T17:14:41.699Z,11.60
2019-02-22T17:17:12.166Z,11.60
2019-02-22T17:19:42.832Z,11.60
2019-02-22T17:22:13.267Z,11.60
2019-02-22T17:24:44.095Z,11.50
2019-02-22T17:27:14.673Z,11.50
2019-02-22T17:29:45.126Z,11.40
2019-02-22T17:32:16.723Z,11.40
2019-02-22T17:34:47.129Z,11.40
2019-02-22T17:37:17.641Z,11.40
2019-02-22T17:39:48.132Z,11.40
2019-02-22T17:42:18.585Z,11.40
2019-02-22T17:44:48.928Z,11.30
2019-02-22T17:47:22.128Z,11.30
2019-02-22T17:49:52.627Z,11.30
2019-02-22T17:52:23.017Z,11.30
2019-02-22T17:54:53.460Z,11.30
2019-02-22T17:57:23.981Z,11.30
2019-02-22T17:59:54.356Z,11.30
2019-02-22T18:02:25.009Z,11.30
2019-02-22T18:04:56.925Z,11.30
2019-02-22T18:07:27.712Z,11.30
2019-02-22T18:09:58.257Z,11.30
2019-02-22T18:12:30.985Z,11.20
2019-02-22T18:15:01.428Z,11.20
2019-02-22T18:17:31.871Z,11.30
2019-02-22T18:20:02.388Z,11.20
2019-02-22T18:22:32.918Z,11.20
2019-02-22T18:25:03.443Z,11.20
2019-02-22T18:27:33.840Z,11.20
2019-02-22T18:30:04.419Z,11.30
2019-02-22T18:32:35.321Z,11.20
2019-02-22T18:35:06.131Z,11.20
2019-02-22T18:37:36.548Z,11.20
2019-02-22T18:40:09.404Z,11.20
2019-02-22T18:42:39.891Z,11.20
2019-02-22T18:45:10.379Z,11.20
2019-02-22T18:47:40.780Z,11.20
2019-02-22T18:50:11.444Z,11.10
2019-02-22T18:52:41.990Z,11.20
2019-02-22T18:55:12.466Z,11.10
2019-02-22T18:57:42.885Z,11.20
2019-02-22T19:00:15.127Z,11.20
2019-02-22T19:02:45.532Z,11.20
2019-02-22T19:05:16.153Z,11.20
2019-02-22T19:07:46.418Z,11.20
2019-02-22T19:10:17.020Z,11.10
2019-02-22T19:12:47.397Z,11.10
2019-02-22T19:15:17.998Z,11.10
2019-02-22T19:17:48.723Z,11.10
2019-02-22T19:20:19.220Z,11.10
2019-02-22T19:22:49.578Z,11.10
2019-02-22T19:25:19.935Z,11.00
2019-02-22T19:27:50.371Z,11.10
2019-02-22T19:30:20.854Z,11.10
2019-02-22T19:32:51.363Z,11.10
2019-02-22T19:35:21.776Z,11.10
2019-02-22T19:37:52.299Z,11.10
2019-02-22T19:40:22.934Z,11.10
2019-02-22T19:42:53.578Z,11.10
2019-02-22T19:45:24.093Z,11.10
2019-02-22T19:47:54.972Z,11.10
2019-02-22T19:50:25.533Z,11.10
2019-02-22T19:52:55.952Z,11.10
2019-02-22T19:55:26.437Z,11.10
2019-02-22T19:57:59.639Z,11.10
2019-02-22T20:00:30.080Z,11.00
2019-02-22T20:03:01.136Z,11.10
2019-02-22T20:05:31.623Z,11.10
2019-02-22T20:08:01.920Z,11.10
2019-02-22T20:10:32.901Z,11.00
2019-02-22T20:13:05.066Z,11.00
2019-02-22T20:15:36.158Z,10.90
2019-02-22T20:18:08.932Z,10.90
2019-02-22T20:20:39.385Z,10.80
2019-02-22T20:23:09.794Z,10.80
2019-02-22T20:25:40.272Z,10.80
2019-02-22T20:28:10.792Z,10.70
2019-02-22T20:30:41.304Z,10.50
2019-02-22T20:33:11.702Z,10.60
2019-02-22T20:35:42.225Z,10.50
2019-02-22T20:38:14.538Z,10.50
2019-02-22T20:40:44.999Z,10.40
2019-02-22T20:43:15.317Z,10.40
2019-02-22T20:45:45.756Z,10.30
2019-02-22T20:48:16.199Z,10.10
2019-02-22T20:50:46.655Z,10.00
2019-02-22T20:53:17.099Z,9.90
2019-02-22T20:55:47.551Z,9.80
2019-02-22T20:58:17.880Z,9.80
2019-02-22T21:00:48.236Z,9.80
2019-02-22T21:03:20.062Z,9.70
2019-02-22T21:05:50.443Z,9.60
2019-02-22T21:08:20.884Z,9.60
2019-02-22T21:10:51.239Z,9.50
2019-02-22T21:13:21.593Z,9.50
2019-02-22T21:15:52.434Z,9.40
2019-02-22T21:18:23.696Z,9.50
2019-02-22T21:20:54.391Z,9.40
2019-02-22T21:23:24.810Z,9.40
2019-02-22T21:25:55.219Z,9.40
2019-02-22T21:28:25.580Z,9.40
2019-02-22T21:30:56.058Z,9.20
2019-02-22T21:33:26.711Z,9.30
2019-02-22T21:35:57.143Z,9.20
2019-02-22T21:38:27.469Z,9.20
2019-02-22T21:40:58.249Z,9.20
2019-02-22T21:43:28.682Z,9.20
2019-02-22T21:45:59.122Z,9.10
2019-02-22T21:48:29.564Z,9.10
2019-02-22T21:50:59.891Z,9.00
2019-02-22T21:53:30.257Z,8.90
2019-02-22T21:56:00.684Z,8.90
2019-02-22T21:58:31.226Z,8.90
2019-02-22T22:01:01.950Z,8.90
2019-02-22T22:03:33.148Z,8.80
2019-02-22T22:06:03.574Z,8.80
2019-02-22T22:08:33.934Z,8.80
2019-02-22T22:11:04.359Z,8.80
2019-02-22T22:13:35.028Z,8.80
2019-02-22T22:16:05.615Z,8.70
2019-02-22T22:18:38.716Z,8.70
2019-02-22T22:21:08.115Z,8.70
2019-02-22T22:23:38.553Z,8.80
2019-02-22T22:26:10.297Z,8.70
2019-02-22T22:28:41.100Z,8.70
2019-02-22T22:31:12.372Z,8.70
2019-02-22T22:33:42.773Z,8.70
2019-02-22T22:36:13.139Z,8.70
2019-02-22T22:38:45.861Z,8.60
2019-02-22T22:41:16.304Z,8.60
2019-02-22T22:43:48.469Z,8.60
2019-02-22T22:46:18.803Z,8.50
2019-02-22T22:48:50.798Z,8.60
2019-02-22T22:51:21.331Z,8.50
2019-02-22T22:53:51.776Z,8.50
2019-02-22T22:56:22.479Z,8.50
2019-02-22T22:58:52.986Z,8.50
2019-02-22T23:01:27.523Z,8.50
2019-02-22T23:03:58.375Z,8.50
2019-02-22T23:06:29.200Z,8.50
2019-02-22T23:09:00.028Z,8.40
2019-02-22T23:11:30.448Z,8.40
2019-02-22T23:14:01.102Z,8.30
2019-02-22T23:16:32.668Z,8.30
2019-02-22T23:19:04.083Z,8.30
2019-02-22T23:21:34.578Z,8.30
2019-02-22T23:24:07.091Z,8.30
2019-02-22T23:26:37.595Z,8.30
2019-02-22T23:29:07.997Z,8.10
2019-02-22T23:31:38.415Z,8.10
2019-02-22T23:34:08.843Z,8.10
2019-02-22T23:36:39.303Z,8.10
2019-02-22T23:39:10.069Z,8.10
2019-02-22T23:41:40.700Z,8.10
2019-02-22T23:44:12.888Z,8.10
2019-02-22T23:46:43.331Z,8.00
2019-02-22T23:49:14.480Z,8.00
2019-02-22T23:51:45.829Z,8.00
2019-02-22T23:54:16.288Z,7.90
2019-02-22T23:56:46.904Z,8.00
2019-02-22T23:59:17.277Z,8.00
